sensor_id;sensor_type;location;lat;lon;timestamp;P1;durP1;ratioP1;P2;durP2;ratioP2
50815;SDS011;39717;47.324;8.788;2022-12-07T00:02:12;43.60;;;23.03;;
50815;SDS011;39717;47.324;8.788;2022-12-07T00:04:38;45.40;;;25.30;;
50815;SDS011;39717;47.324;8.788;2022-12-07T00:07:05;42.47;;;24.00;;
50815;SDS011;39717;47.324;8.788;2022-12-07T00:09:31;46.53;;;25.73;;
50815;SDS011;39717;47.324;8.788;2022-12-07T00:11:57;46.03;;;24.30;;
50815;SDS011;39717;47.324;8.788;2022-12-07T00:14:23;39.43;;;22.80;;
50815;SDS011;39717;47.324;8.788;2022-12-07T00:16:50;50.93;;;24.57;;
50815;SDS011;39717;47.324;8.788;2022-12-07T00:19:17;44.63;;;23.50;;
50815;SDS011;39717;47.324;8.788;2022-12-07T00:21:43;43.33;;;24.47;;
50815;SDS011;39717;47.324;8.788;2022-12-07T00:24:10;43.20;;;24.13;;
50815;SDS011;39717;47.324;8.788;2022-12-07T00:26:38;42.33;;;23.40;;
50815;SDS011;39717;47.324;8.788;2022-12-07T00:29:06;43.53;;;23.63;;
50815;SDS011;39717;47.324;8.788;2022-12-07T00:31:34;43.57;;;23.57;;
50815;SDS011;39717;47.324;8.788;2022-12-07T00:34:03;41.93;;;23.10;;
50815;SDS011;39717;47.324;8.788;2022-12-07T00:36:29;45.33;;;24.70;;
50815;SDS011;39717;47.324;8.788;2022-12-07T00:38:57;43.37;;;23.53;;
50815;SDS011;39717;47.324;8.788;2022-12-07T00:41:24;43.67;;;23.27;;
50815;SDS011;39717;47.324;8.788;2022-12-07T00:43:50;41.83;;;21.87;;
50815;SDS011;39717;47.324;8.788;2022-12-07T00:46:17;40.80;;;22.67;;
50815;SDS011;39717;47.324;8.788;2022-12-07T00:48:43;39.13;;;20.87;;
50815;SDS011;39717;47.324;8.788;2022-12-07T00:51:10;43.57;;;23.57;;
50815;SDS011;39717;47.324;8.788;2022-12-07T00:53:37;41.40;;;22.90;;
50815;SDS011;39717;47.324;8.788;2022-12-07T00:58:32;41.93;;;23.83;;
50815;SDS011;39717;47.324;8.788;2022-12-07T01:00:59;42.47;;;21.43;;
50815;SDS011;39717;47.324;8.788;2022-12-07T01:03:27;41.57;;;23.20;;
50815;SDS011;39717;47.324;8.788;2022-12-07T01:05:54;39.27;;;22.57;;
50815;SDS011;39717;47.324;8.788;2022-12-07T01:08:24;40.10;;;21.20;;
50815;SDS011;39717;47.324;8.788;2022-12-07T01:10:58;39.40;;;22.43;;
50815;SDS011;39717;47.324;8.788;2022-12-07T01:13:24;38.20;;;21.93;;
50815;SDS011;39717;47.324;8.788;2022-12-07T01:15:50;41.47;;;21.23;;
50815;SDS011;39717;47.324;8.788;2022-12-07T01:18:17;41.40;;;23.20;;
50815;SDS011;39717;47.324;8.788;2022-12-07T01:20:43;39.70;;;21.50;;
50815;SDS011;39717;47.324;8.788;2022-12-07T01:23:09;42.03;;;24.73;;
50815;SDS011;39717;47.324;8.788;2022-12-07T01:25:35;42.03;;;23.00;;
50815;SDS011;39717;47.324;8.788;2022-12-07T01:28:01;42.20;;;22.57;;
50815;SDS011;39717;47.324;8.788;2022-12-07T01:30:27;42.93;;;23.67;;
50815;SDS011;39717;47.324;8.788;2022-12-07T01:32:54;41.23;;;23.70;;
50815;SDS011;39717;47.324;8.788;2022-12-07T01:35:21;41.10;;;23.33;;
50815;SDS011;39717;47.324;8.788;2022-12-07T01:37:47;40.60;;;22.90;;
50815;SDS011;39717;47.324;8.788;2022-12-07T01:40:13;42.70;;;23.40;;
50815;SDS011;39717;47.324;8.788;2022-12-07T01:42:39;44.73;;;23.50;;
50815;SDS011;39717;47.324;8.788;2022-12-07T01:47:48;42.03;;;22.77;;
50815;SDS011;39717;47.324;8.788;2022-12-07T01:50:16;43.30;;;23.43;;
50815;SDS011;39717;47.324;8.788;2022-12-07T01:52:43;37.57;;;22.00;;
50815;SDS011;39717;47.324;8.788;2022-12-07T01:55:12;43.17;;;24.67;;
50815;SDS011;39717;47.324;8.788;2022-12-07T01:57:45;41.37;;;22.90;;
50815;SDS011;39717;47.324;8.788;2022-12-07T02:00:13;40.27;;;23.03;;
50815;SDS011;39717;47.324;8.788;2022-12-07T02:02:44;41.20;;;22.50;;
50815;SDS011;39717;47.324;8.788;2022-12-07T02:05:11;40.73;;;21.80;;
50815;SDS011;39717;47.324;8.788;2022-12-07T02:07:42;35.53;;;20.90;;
50815;SDS011;39717;47.324;8.788;2022-12-07T02:12:47;35.43;;;20.77;;
50815;SDS011;39717;47.324;8.788;2022-12-07T02:15:14;39.43;;;22.20;;
50815;SDS011;39717;47.324;8.788;2022-12-07T02:17:49;38.93;;;21.27;;
50815;SDS011;39717;47.324;8.788;2022-12-07T02:20:33;36.87;;;20.87;;
50815;SDS011;39717;47.324;8.788;2022-12-07T02:28:30;34.77;;;19.37;;
50815;SDS011;39717;47.324;8.788;2022-12-07T02:31:00;31.53;;;19.60;;
50815;SDS011;39717;47.324;8.788;2022-12-07T02:33:35;35.37;;;19.70;;
50815;SDS011;39717;47.324;8.788;2022-12-07T02:36:04;35.30;;;20.53;;
50815;SDS011;39717;47.324;8.788;2022-12-07T02:38:53;33.90;;;19.43;;
50815;SDS011;39717;47.324;8.788;2022-12-07T02:43:47;35.40;;;20.37;;
50815;SDS011;39717;47.324;8.788;2022-12-07T02:46:23;34.53;;;20.57;;
50815;SDS011;39717;47.324;8.788;2022-12-07T02:48:50;34.90;;;19.70;;
50815;SDS011;39717;47.324;8.788;2022-12-07T02:51:17;36.07;;;20.87;;
50815;SDS011;39717;47.324;8.788;2022-12-07T02:53:44;34.00;;;19.90;;
50815;SDS011;39717;47.324;8.788;2022-12-07T03:06:43;38.90;;;20.57;;
50815;SDS011;39717;47.324;8.788;2022-12-07T03:09:32;32.73;;;19.67;;
50815;SDS011;39717;47.324;8.788;2022-12-07T03:12:08;34.47;;;18.57;;
50815;SDS011;39717;47.324;8.788;2022-12-07T03:14:57;36.50;;;20.97;;
50815;SDS011;39717;47.324;8.788;2022-12-07T03:17:24;33.40;;;19.40;;
50815;SDS011;39717;47.324;8.788;2022-12-07T03:19:51;37.13;;;19.80;;
50815;SDS011;39717;47.324;8.788;2022-12-07T03:22:19;33.57;;;19.57;;
50815;SDS011;39717;47.324;8.788;2022-12-07T03:24:50;36.23;;;19.50;;
50815;SDS011;39717;47.324;8.788;2022-12-07T03:27:27;31.40;;;19.00;;
50815;SDS011;39717;47.324;8.788;2022-12-07T03:29:58;35.53;;;20.23;;
50815;SDS011;39717;47.324;8.788;2022-12-07T03:35:00;39.33;;;20.63;;
50815;SDS011;39717;47.324;8.788;2022-12-07T03:37:32;34.87;;;19.47;;
50815;SDS011;39717;47.324;8.788;2022-12-07T03:42:38;38.77;;;21.17;;
50815;SDS011;39717;47.324;8.788;2022-12-07T03:45:04;32.87;;;19.33;;
50815;SDS011;39717;47.324;8.788;2022-12-07T03:47:33;34.33;;;19.73;;
50815;SDS011;39717;47.324;8.788;2022-12-07T03:50:03;35.17;;;20.67;;
50815;SDS011;39717;47.324;8.788;2022-12-07T03:55:20;33.00;;;19.13;;
50815;SDS011;39717;47.324;8.788;2022-12-07T03:57:44;31.27;;;18.00;;
50815;SDS011;39717;47.324;8.788;2022-12-07T04:00:13;35.80;;;19.13;;
50815;SDS011;39717;47.324;8.788;2022-12-07T04:02:40;38.47;;;21.17;;
50815;SDS011;39717;47.324;8.788;2022-12-07T04:05:07;35.47;;;20.13;;
50815;SDS011;39717;47.324;8.788;2022-12-07T04:07:33;32.13;;;18.93;;
50815;SDS011;39717;47.324;8.788;2022-12-07T04:09:59;36.00;;;20.33;;
50815;SDS011;39717;47.324;8.788;2022-12-07T04:12:25;31.83;;;19.23;;
50815;SDS011;39717;47.324;8.788;2022-12-07T04:14:52;35.87;;;19.73;;
50815;SDS011;39717;47.324;8.788;2022-12-07T04:17:18;36.67;;;21.17;;
50815;SDS011;39717;47.324;8.788;2022-12-07T04:19:44;33.47;;;19.23;;
50815;SDS011;39717;47.324;8.788;2022-12-07T04:22:10;32.90;;;19.20;;
50815;SDS011;39717;47.324;8.788;2022-12-07T04:24:36;32.00;;;19.40;;
50815;SDS011;39717;47.324;8.788;2022-12-07T04:27:03;34.37;;;19.93;;
50815;SDS011;39717;47.324;8.788;2022-12-07T04:29:29;33.57;;;20.30;;
50815;SDS011;39717;47.324;8.788;2022-12-07T04:31:55;36.43;;;20.50;;
50815;SDS011;39717;47.324;8.788;2022-12-07T04:34:21;33.80;;;19.90;;
50815;SDS011;39717;47.324;8.788;2022-12-07T04:36:47;36.37;;;20.03;;
50815;SDS011;39717;47.324;8.788;2022-12-07T04:39:32;33.73;;;19.67;;
50815;SDS011;39717;47.324;8.788;2022-12-07T04:41:59;35.43;;;19.83;;
50815;SDS011;39717;47.324;8.788;2022-12-07T04:44:26;34.47;;;19.20;;
50815;SDS011;39717;47.324;8.788;2022-12-07T04:46:53;37.40;;;20.20;;
50815;SDS011;39717;47.324;8.788;2022-12-07T04:49:20;35.57;;;20.07;;
50815;SDS011;39717;47.324;8.788;2022-12-07T04:51:47;31.67;;;18.43;;
50815;SDS011;39717;47.324;8.788;2022-12-07T04:54:14;32.33;;;18.57;;
50815;SDS011;39717;47.324;8.788;2022-12-07T04:56:40;33.03;;;18.97;;
50815;SDS011;39717;47.324;8.788;2022-12-07T04:59:07;37.43;;;20.57;;
50815;SDS011;39717;47.324;8.788;2022-12-07T05:01:34;34.80;;;19.93;;
50815;SDS011;39717;47.324;8.788;2022-12-07T05:04:00;34.43;;;20.23;;
50815;SDS011;39717;47.324;8.788;2022-12-07T05:06:26;34.43;;;19.17;;
50815;SDS011;39717;47.324;8.788;2022-12-07T05:08:52;34.20;;;19.43;;
50815;SDS011;39717;47.324;8.788;2022-12-07T05:11:18;35.13;;;19.73;;
50815;SDS011;39717;47.324;8.788;2022-12-07T05:14:03;36.60;;;20.73;;
50815;SDS011;39717;47.324;8.788;2022-12-07T05:16:30;37.20;;;19.90;;
50815;SDS011;39717;47.324;8.788;2022-12-07T05:18:56;30.83;;;18.77;;
50815;SDS011;39717;47.324;8.788;2022-12-07T05:21:22;36.97;;;20.60;;
50815;SDS011;39717;47.324;8.788;2022-12-07T05:23:49;31.77;;;19.40;;
50815;SDS011;39717;47.324;8.788;2022-12-07T05:26:15;35.03;;;20.20;;
50815;SDS011;39717;47.324;8.788;2022-12-07T05:28:41;30.90;;;19.00;;
50815;SDS011;39717;47.324;8.788;2022-12-07T05:31:07;35.43;;;19.93;;
50815;SDS011;39717;47.324;8.788;2022-12-07T05:33:34;34.17;;;18.37;;
50815;SDS011;39717;47.324;8.788;2022-12-07T05:36:00;33.90;;;18.87;;
50815;SDS011;39717;47.324;8.788;2022-12-07T05:38:33;34.10;;;19.33;;
50815;SDS011;39717;47.324;8.788;2022-12-07T05:41:00;32.93;;;18.70;;
50815;SDS011;39717;47.324;8.788;2022-12-07T05:43:27;33.57;;;18.17;;
50815;SDS011;39717;47.324;8.788;2022-12-07T05:45:54;33.73;;;19.30;;
50815;SDS011;39717;47.324;8.788;2022-12-07T05:48:20;31.50;;;18.43;;
50815;SDS011;39717;47.324;8.788;2022-12-07T05:50:50;33.40;;;18.03;;
50815;SDS011;39717;47.324;8.788;2022-12-07T05:53:17;34.47;;;19.10;;
50815;SDS011;39717;47.324;8.788;2022-12-07T05:55:43;34.53;;;19.07;;
50815;SDS011;39717;47.324;8.788;2022-12-07T05:58:10;31.03;;;18.53;;
50815;SDS011;39717;47.324;8.788;2022-12-07T06:00:59;30.33;;;17.10;;
50815;SDS011;39717;47.324;8.788;2022-12-07T06:03:25;33.27;;;18.77;;
50815;SDS011;39717;47.324;8.788;2022-12-07T06:05:51;31.27;;;18.17;;
50815;SDS011;39717;47.324;8.788;2022-12-07T06:08:18;32.03;;;19.03;;
50815;SDS011;39717;47.324;8.788;2022-12-07T06:10:46;38.63;;;20.43;;
50815;SDS011;39717;47.324;8.788;2022-12-07T06:13:32;32.13;;;18.93;;
50815;SDS011;39717;47.324;8.788;2022-12-07T06:15:58;31.90;;;18.43;;
50815;SDS011;39717;47.324;8.788;2022-12-07T06:18:24;37.40;;;20.77;;
50815;SDS011;39717;47.324;8.788;2022-12-07T06:20:50;37.83;;;21.90;;
50815;SDS011;39717;47.324;8.788;2022-12-07T06:23:17;40.73;;;21.67;;
50815;SDS011;39717;47.324;8.788;2022-12-07T06:25:45;38.30;;;20.77;;
50815;SDS011;39717;47.324;8.788;2022-12-07T06:28:11;40.87;;;21.50;;
50815;SDS011;39717;47.324;8.788;2022-12-07T06:30:37;47.47;;;23.97;;
50815;SDS011;39717;47.324;8.788;2022-12-07T06:33:03;47.90;;;22.97;;
50815;SDS011;39717;47.324;8.788;2022-12-07T06:35:29;42.63;;;23.47;;
50815;SDS011;39717;47.324;8.788;2022-12-07T06:37:58;41.27;;;21.70;;
50815;SDS011;39717;47.324;8.788;2022-12-07T06:40:24;39.03;;;22.07;;
50815;SDS011;39717;47.324;8.788;2022-12-07T06:42:50;43.97;;;24.17;;
50815;SDS011;39717;47.324;8.788;2022-12-07T06:45:16;46.77;;;24.53;;
50815;SDS011;39717;47.324;8.788;2022-12-07T06:47:42;51.13;;;26.23;;
50815;SDS011;39717;47.324;8.788;2022-12-07T06:50:08;47.53;;;23.93;;
50815;SDS011;39717;47.324;8.788;2022-12-07T06:52:35;41.63;;;22.87;;
50815;SDS011;39717;47.324;8.788;2022-12-07T06:55:01;41.60;;;22.27;;
50815;SDS011;39717;47.324;8.788;2022-12-07T06:57:27;43.47;;;24.03;;
50815;SDS011;39717;47.324;8.788;2022-12-07T06:59:53;40.83;;;21.97;;
50815;SDS011;39717;47.324;8.788;2022-12-07T07:02:19;43.40;;;23.00;;
50815;SDS011;39717;47.324;8.788;2022-12-07T07:04:45;41.30;;;22.30;;
50815;SDS011;39717;47.324;8.788;2022-12-07T07:07:11;44.27;;;23.37;;
50815;SDS011;39717;47.324;8.788;2022-12-07T07:09:38;45.30;;;23.27;;
50815;SDS011;39717;47.324;8.788;2022-12-07T07:12:04;49.87;;;24.00;;
50815;SDS011;39717;47.324;8.788;2022-12-07T07:14:30;50.07;;;23.53;;
50815;SDS011;39717;47.324;8.788;2022-12-07T07:16:56;47.50;;;24.90;;
50815;SDS011;39717;47.324;8.788;2022-12-07T07:19:22;46.90;;;24.80;;
50815;SDS011;39717;47.324;8.788;2022-12-07T07:21:48;54.23;;;26.20;;
50815;SDS011;39717;47.324;8.788;2022-12-07T07:24:15;51.73;;;25.37;;
50815;SDS011;39717;47.324;8.788;2022-12-07T07:26:41;49.97;;;25.37;;
50815;SDS011;39717;47.324;8.788;2022-12-07T07:29:07;52.33;;;26.03;;
50815;SDS011;39717;47.324;8.788;2022-12-07T07:31:33;43.80;;;25.07;;
50815;SDS011;39717;47.324;8.788;2022-12-07T07:34:00;48.33;;;25.07;;
50815;SDS011;39717;47.324;8.788;2022-12-07T07:36:27;50.07;;;24.17;;
50815;SDS011;39717;47.324;8.788;2022-12-07T07:38:53;51.10;;;25.57;;
50815;SDS011;39717;47.324;8.788;2022-12-07T07:41:19;55.43;;;27.13;;
50815;SDS011;39717;47.324;8.788;2022-12-07T07:43:45;47.17;;;25.50;;
50815;SDS011;39717;47.324;8.788;2022-12-07T07:46:11;54.37;;;26.27;;
50815;SDS011;39717;47.324;8.788;2022-12-07T07:48:37;55.90;;;26.97;;
50815;SDS011;39717;47.324;8.788;2022-12-07T07:51:07;59.27;;;28.03;;
50815;SDS011;39717;47.324;8.788;2022-12-07T07:53:34;58.20;;;27.63;;
50815;SDS011;39717;47.324;8.788;2022-12-07T07:56:00;59.07;;;27.43;;
50815;SDS011;39717;47.324;8.788;2022-12-07T07:58:27;68.23;;;29.23;;
50815;SDS011;39717;47.324;8.788;2022-12-07T08:00:53;61.40;;;27.80;;
50815;SDS011;39717;47.324;8.788;2022-12-07T08:03:20;53.57;;;27.37;;
50815;SDS011;39717;47.324;8.788;2022-12-07T08:05:46;54.97;;;26.77;;
50815;SDS011;39717;47.324;8.788;2022-12-07T08:08:12;56.97;;;27.30;;
50815;SDS011;39717;47.324;8.788;2022-12-07T08:10:38;66.93;;;27.83;;
50815;SDS011;39717;47.324;8.788;2022-12-07T08:13:04;61.47;;;27.40;;
50815;SDS011;39717;47.324;8.788;2022-12-07T08:15:37;60.40;;;28.37;;
50815;SDS011;39717;47.324;8.788;2022-12-07T08:18:04;63.23;;;28.43;;
50815;SDS011;39717;47.324;8.788;2022-12-07T08:20:31;64.37;;;28.37;;
50815;SDS011;39717;47.324;8.788;2022-12-07T08:22:58;69.93;;;29.37;;
50815;SDS011;39717;47.324;8.788;2022-12-07T08:25:24;70.83;;;29.57;;
50815;SDS011;39717;47.324;8.788;2022-12-07T08:27:50;64.40;;;29.80;;
50815;SDS011;39717;47.324;8.788;2022-12-07T08:30:17;61.50;;;28.87;;
50815;SDS011;39717;47.324;8.788;2022-12-07T08:35:14;69.07;;;30.17;;
50815;SDS011;39717;47.324;8.788;2022-12-07T08:37:40;67.40;;;28.70;;
50815;SDS011;39717;47.324;8.788;2022-12-07T08:40:07;64.27;;;28.10;;
50815;SDS011;39717;47.324;8.788;2022-12-07T08:42:34;65.47;;;28.20;;
50815;SDS011;39717;47.324;8.788;2022-12-07T08:45:09;72.20;;;29.13;;
50815;SDS011;39717;47.324;8.788;2022-12-07T08:47:44;66.70;;;29.13;;
50815;SDS011;39717;47.324;8.788;2022-12-07T08:50:12;61.10;;;26.03;;
50815;SDS011;39717;47.324;8.788;2022-12-07T08:52:38;65.43;;;27.03;;
50815;SDS011;39717;47.324;8.788;2022-12-07T08:55:06;59.30;;;25.87;;
50815;SDS011;39717;47.324;8.788;2022-12-07T08:57:33;64.23;;;27.07;;
50815;SDS011;39717;47.324;8.788;2022-12-07T09:00:00;60.57;;;26.77;;
50815;SDS011;39717;47.324;8.788;2022-12-07T09:02:26;65.80;;;27.90;;
50815;SDS011;39717;47.324;8.788;2022-12-07T09:04:52;64.87;;;27.27;;
50815;SDS011;39717;47.324;8.788;2022-12-07T09:07:18;64.80;;;28.67;;
50815;SDS011;39717;47.324;8.788;2022-12-07T09:09:44;73.83;;;29.63;;
50815;SDS011;39717;47.324;8.788;2022-12-07T09:12:11;73.80;;;29.13;;
50815;SDS011;39717;47.324;8.788;2022-12-07T09:14:37;63.60;;;28.20;;
50815;SDS011;39717;47.324;8.788;2022-12-07T09:17:10;72.37;;;27.77;;
50815;SDS011;39717;47.324;8.788;2022-12-07T09:19:36;72.07;;;29.10;;
50815;SDS011;39717;47.324;8.788;2022-12-07T09:22:03;72.97;;;29.97;;
50815;SDS011;39717;47.324;8.788;2022-12-07T09:24:30;77.57;;;30.20;;
50815;SDS011;39717;47.324;8.788;2022-12-07T09:26:57;66.97;;;29.23;;
50815;SDS011;39717;47.324;8.788;2022-12-07T09:29:23;79.13;;;30.07;;
50815;SDS011;39717;47.324;8.788;2022-12-07T09:31:50;71.63;;;28.73;;
50815;SDS011;39717;47.324;8.788;2022-12-07T09:34:16;76.10;;;29.77;;
50815;SDS011;39717;47.324;8.788;2022-12-07T09:36:43;70.87;;;29.37;;
50815;SDS011;39717;47.324;8.788;2022-12-07T09:39:09;71.50;;;28.40;;
50815;SDS011;39717;47.324;8.788;2022-12-07T09:41:40;70.37;;;30.50;;
50815;SDS011;39717;47.324;8.788;2022-12-07T09:44:11;62.10;;;27.27;;
50815;SDS011;39717;47.324;8.788;2022-12-07T09:46:39;70.77;;;29.13;;
50815;SDS011;39717;47.324;8.788;2022-12-07T09:49:09;63.53;;;28.10;;
50815;SDS011;39717;47.324;8.788;2022-12-07T09:51:37;70.20;;;28.87;;
50815;SDS011;39717;47.324;8.788;2022-12-07T09:54:03;66.97;;;29.43;;
50815;SDS011;39717;47.324;8.788;2022-12-07T09:56:31;65.73;;;28.40;;
50815;SDS011;39717;47.324;8.788;2022-12-07T09:59:00;68.83;;;28.70;;
50815;SDS011;39717;47.324;8.788;2022-12-07T10:01:28;65.37;;;27.87;;
50815;SDS011;39717;47.324;8.788;2022-12-07T10:03:59;70.00;;;27.83;;
50815;SDS011;39717;47.324;8.788;2022-12-07T10:06:26;64.47;;;27.43;;
50815;SDS011;39717;47.324;8.788;2022-12-07T10:08:52;63.73;;;26.80;;
50815;SDS011;39717;47.324;8.788;2022-12-07T10:11:19;66.63;;;27.80;;
50815;SDS011;39717;47.324;8.788;2022-12-07T10:13:46;63.00;;;24.07;;
50815;SDS011;39717;47.324;8.788;2022-12-07T10:18:54;59.53;;;25.13;;
50815;SDS011;39717;47.324;8.788;2022-12-07T10:21:21;63.47;;;28.70;;
50815;SDS011;39717;47.324;8.788;2022-12-07T10:24:04;67.83;;;27.50;;
50815;SDS011;39717;47.324;8.788;2022-12-07T10:31:43;64.57;;;27.33;;
50815;SDS011;39717;47.324;8.788;2022-12-07T10:34:31;72.90;;;28.70;;
50815;SDS011;39717;47.324;8.788;2022-12-07T10:39:42;60.70;;;24.77;;
50815;SDS011;39717;47.324;8.788;2022-12-07T10:42:16;50.90;;;23.23;;
50815;SDS011;39717;47.324;8.788;2022-12-07T10:44:43;56.53;;;24.97;;
50815;SDS011;39717;47.324;8.788;2022-12-07T10:47:31;59.40;;;25.67;;
50815;SDS011;39717;47.324;8.788;2022-12-07T11:00:19;47.17;;;22.37;;
50815;SDS011;39717;47.324;8.788;2022-12-07T11:07:46;51.67;;;24.83;;
50815;SDS011;39717;47.324;8.788;2022-12-07T11:10:38;58.20;;;24.97;;
50815;SDS011;39717;47.324;8.788;2022-12-07T11:13:20;46.53;;;22.80;;
50815;SDS011;39717;47.324;8.788;2022-12-07T11:18:19;52.03;;;22.27;;
50815;SDS011;39717;47.324;8.788;2022-12-07T11:21:00;47.30;;;21.47;;
50815;SDS011;39717;47.324;8.788;2022-12-07T11:31:39;38.40;;;19.10;;
50815;SDS011;39717;47.324;8.788;2022-12-07T11:34:14;42.17;;;19.30;;
50815;SDS011;39717;47.324;8.788;2022-12-07T11:36:43;36.83;;;19.47;;
50815;SDS011;39717;47.324;8.788;2022-12-07T11:39:16;54.47;;;23.03;;
50815;SDS011;39717;47.324;8.788;2022-12-07T11:41:47;43.37;;;21.90;;
50815;SDS011;39717;47.324;8.788;2022-12-07T11:51:41;37.83;;;20.53;;
50815;SDS011;39717;47.324;8.788;2022-12-07T11:54:19;38.83;;;18.83;;
50815;SDS011;39717;47.324;8.788;2022-12-07T11:56:47;35.93;;;19.23;;
50815;SDS011;39717;47.324;8.788;2022-12-07T12:02:00;35.73;;;18.87;;
50815;SDS011;39717;47.324;8.788;2022-12-07T12:04:53;36.03;;;18.83;;
50815;SDS011;39717;47.324;8.788;2022-12-07T12:07:17;39.40;;;19.27;;
50815;SDS011;39717;47.324;8.788;2022-12-07T12:09:49;38.80;;;19.13;;
50815;SDS011;39717;47.324;8.788;2022-12-07T12:12:33;41.07;;;20.60;;
50815;SDS011;39717;47.324;8.788;2022-12-07T12:22:37;39.67;;;20.93;;
50815;SDS011;39717;47.324;8.788;2022-12-07T12:25:06;36.97;;;18.43;;
50815;SDS011;39717;47.324;8.788;2022-12-07T12:27:34;41.17;;;20.53;;
50815;SDS011;39717;47.324;8.788;2022-12-07T12:30:02;40.83;;;20.40;;
50815;SDS011;39717;47.324;8.788;2022-12-07T12:32:36;38.80;;;19.87;;
50815;SDS011;39717;47.324;8.788;2022-12-07T12:37:46;43.93;;;21.83;;
50815;SDS011;39717;47.324;8.788;2022-12-07T12:42:49;44.07;;;20.63;;
50815;SDS011;39717;47.324;8.788;2022-12-07T12:45:23;43.93;;;21.53;;
50815;SDS011;39717;47.324;8.788;2022-12-07T12:47:59;38.07;;;19.80;;
50815;SDS011;39717;47.324;8.788;2022-12-07T12:55:29;39.97;;;21.30;;
50815;SDS011;39717;47.324;8.788;2022-12-07T13:00:44;35.63;;;18.20;;
50815;SDS011;39717;47.324;8.788;2022-12-07T13:03:27;33.37;;;18.20;;
50815;SDS011;39717;47.324;8.788;2022-12-07T13:08:40;33.93;;;17.80;;
50815;SDS011;39717;47.324;8.788;2022-12-07T13:13:52;38.47;;;21.83;;
50815;SDS011;39717;47.324;8.788;2022-12-07T13:18:47;36.77;;;19.20;;
50815;SDS011;39717;47.324;8.788;2022-12-07T13:26:17;28.10;;;15.43;;
50815;SDS011;39717;47.324;8.788;2022-12-07T13:28:50;30.30;;;17.47;;
50815;SDS011;39717;47.324;8.788;2022-12-07T13:33:55;28.80;;;16.13;;
50815;SDS011;39717;47.324;8.788;2022-12-07T13:36:22;22.93;;;13.83;;
50815;SDS011;39717;47.324;8.788;2022-12-07T13:38:51;28.00;;;15.60;;
50815;SDS011;39717;47.324;8.788;2022-12-07T13:41:18;33.43;;;17.47;;
50815;SDS011;39717;47.324;8.788;2022-12-07T13:43:50;30.70;;;15.97;;
50815;SDS011;39717;47.324;8.788;2022-12-07T13:46:17;30.03;;;17.00;;
50815;SDS011;39717;47.324;8.788;2022-12-07T13:48:47;27.67;;;15.47;;
50815;SDS011;39717;47.324;8.788;2022-12-07T13:51:24;29.17;;;16.50;;
50815;SDS011;39717;47.324;8.788;2022-12-07T13:53:52;26.57;;;15.90;;
50815;SDS011;39717;47.324;8.788;2022-12-07T13:56:20;27.77;;;16.13;;
50815;SDS011;39717;47.324;8.788;2022-12-07T13:58:47;27.50;;;15.80;;
50815;SDS011;39717;47.324;8.788;2022-12-07T14:01:13;34.80;;;18.13;;
50815;SDS011;39717;47.324;8.788;2022-12-07T14:03:39;35.13;;;17.80;;
50815;SDS011;39717;47.324;8.788;2022-12-07T14:06:10;33.07;;;17.50;;
50815;SDS011;39717;47.324;8.788;2022-12-07T14:08:39;32.40;;;18.50;;
50815;SDS011;39717;47.324;8.788;2022-12-07T14:11:05;31.97;;;17.53;;
50815;SDS011;39717;47.324;8.788;2022-12-07T14:13:38;28.30;;;17.00;;
50815;SDS011;39717;47.324;8.788;2022-12-07T14:21:02;27.17;;;16.20;;
50815;SDS011;39717;47.324;8.788;2022-12-07T14:23:29;27.67;;;15.70;;
50815;SDS011;39717;47.324;8.788;2022-12-07T14:26:04;28.37;;;15.80;;
50815;SDS011;39717;47.324;8.788;2022-12-07T14:28:32;29.87;;;17.07;;
50815;SDS011;39717;47.324;8.788;2022-12-07T14:31:00;29.63;;;16.20;;
50815;SDS011;39717;47.324;8.788;2022-12-07T14:33:26;33.33;;;17.30;;
50815;SDS011;39717;47.324;8.788;2022-12-07T14:35:54;32.40;;;17.53;;
50815;SDS011;39717;47.324;8.788;2022-12-07T14:38:22;26.87;;;16.20;;
50815;SDS011;39717;47.324;8.788;2022-12-07T14:40:49;28.50;;;16.57;;
50815;SDS011;39717;47.324;8.788;2022-12-07T14:43:16;34.30;;;20.37;;
50815;SDS011;39717;47.324;8.788;2022-12-07T14:45:43;31.63;;;17.60;;
50815;SDS011;39717;47.324;8.788;2022-12-07T14:48:13;22.47;;;15.07;;
50815;SDS011;39717;47.324;8.788;2022-12-07T14:50:50;28.30;;;16.33;;
50815;SDS011;39717;47.324;8.788;2022-12-07T14:53:17;30.40;;;16.27;;
50815;SDS011;39717;47.324;8.788;2022-12-07T14:55:44;24.80;;;15.10;;
50815;SDS011;39717;47.324;8.788;2022-12-07T14:58:13;28.40;;;16.07;;
50815;SDS011;39717;47.324;8.788;2022-12-07T15:00:40;30.67;;;17.50;;
50815;SDS011;39717;47.324;8.788;2022-12-07T15:03:07;25.77;;;15.93;;
50815;SDS011;39717;47.324;8.788;2022-12-07T15:05:33;27.30;;;16.30;;
50815;SDS011;39717;47.324;8.788;2022-12-07T15:08:00;29.77;;;16.37;;
50815;SDS011;39717;47.324;8.788;2022-12-07T15:10:31;27.53;;;15.53;;
50815;SDS011;39717;47.324;8.788;2022-12-07T15:12:58;22.93;;;13.87;;
50815;SDS011;39717;47.324;8.788;2022-12-07T15:15:45;22.43;;;13.90;;
50815;SDS011;39717;47.324;8.788;2022-12-07T15:18:11;22.07;;;13.20;;
50815;SDS011;39717;47.324;8.788;2022-12-07T15:20:37;23.40;;;13.40;;
50815;SDS011;39717;47.324;8.788;2022-12-07T15:23:04;21.43;;;13.40;;
50815;SDS011;39717;47.324;8.788;2022-12-07T15:25:30;19.40;;;12.00;;
50815;SDS011;39717;47.324;8.788;2022-12-07T15:27:56;17.77;;;11.93;;
50815;SDS011;39717;47.324;8.788;2022-12-07T15:30:22;19.93;;;12.27;;
50815;SDS011;39717;47.324;8.788;2022-12-07T15:32:49;28.57;;;19.30;;
50815;SDS011;39717;47.324;8.788;2022-12-07T15:35:15;24.20;;;15.73;;
50815;SDS011;39717;47.324;8.788;2022-12-07T15:37:41;20.77;;;12.50;;
50815;SDS011;39717;47.324;8.788;2022-12-07T15:40:07;20.43;;;12.87;;
50815;SDS011;39717;47.324;8.788;2022-12-07T15:42:35;18.00;;;12.00;;
50815;SDS011;39717;47.324;8.788;2022-12-07T15:45:01;19.00;;;12.30;;
50815;SDS011;39717;47.324;8.788;2022-12-07T15:47:34;18.30;;;11.83;;
50815;SDS011;39717;47.324;8.788;2022-12-07T15:50:04;20.40;;;12.97;;
50815;SDS011;39717;47.324;8.788;2022-12-07T15:52:32;20.80;;;12.53;;
50815;SDS011;39717;47.324;8.788;2022-12-07T15:54:59;19.63;;;13.27;;
50815;SDS011;39717;47.324;8.788;2022-12-07T15:57:25;28.30;;;15.67;;
50815;SDS011;39717;47.324;8.788;2022-12-07T15:59:52;26.70;;;14.63;;
50815;SDS011;39717;47.324;8.788;2022-12-07T16:02:19;28.97;;;16.73;;
50815;SDS011;39717;47.324;8.788;2022-12-07T16:04:46;30.03;;;17.00;;
50815;SDS011;39717;47.324;8.788;2022-12-07T16:07:12;31.80;;;16.87;;
50815;SDS011;39717;47.324;8.788;2022-12-07T16:09:41;31.73;;;15.97;;
50815;SDS011;39717;47.324;8.788;2022-12-07T16:12:07;28.27;;;16.90;;
50815;SDS011;39717;47.324;8.788;2022-12-07T16:14:34;30.37;;;16.30;;
50815;SDS011;39717;47.324;8.788;2022-12-07T16:17:00;28.73;;;16.37;;
50815;SDS011;39717;47.324;8.788;2022-12-07T16:19:26;29.07;;;17.67;;
50815;SDS011;39717;47.324;8.788;2022-12-07T16:21:52;28.33;;;15.93;;
50815;SDS011;39717;47.324;8.788;2022-12-07T16:24:19;30.40;;;16.90;;
50815;SDS011;39717;47.324;8.788;2022-12-07T16:26:45;31.83;;;17.60;;
50815;SDS011;39717;47.324;8.788;2022-12-07T16:29:12;30.20;;;17.33;;
50815;SDS011;39717;47.324;8.788;2022-12-07T16:31:38;29.83;;;17.13;;
50815;SDS011;39717;47.324;8.788;2022-12-07T16:34:04;30.80;;;16.87;;